sensor_id;sensor_type;location;lat;lon;timestamp;pressure;altitude;pressure_sealevel;temperature;humidity
53858;BME280;39763;51.188;6.690;2023-03-14T00:01:11;98778.97;;;13.88;64.15
53858;BME280;39763;51.188;6.690;2023-03-14T00:02:42;98775.25;;;13.90;63.73
53858;BME280;39763;51.188;6.690;2023-03-14T00:04:15;98763.84;;;13.90;63.61
53858;BME280;39763;51.188;6.690;2023-03-14T00:05:47;98763.84;;;13.90;63.52
53858;BME280;39763;51.188;6.690;2023-03-14T00:07:19;98759.31;;;13.92;63.60
53858;BME280;39763;51.188;6.690;2023-03-14T00:08:50;98758.34;;;13.93;63.42
53858;BME280;39763;51.188;6.690;2023-03-14T00:10:23;98747.91;;;13.91;63.42
53858;BME280;39763;51.188;6.690;2023-03-14T00:11:56;98746.69;;;13.95;63.62
53858;BME280;39763;51.188;6.690;2023-03-14T00:13:28;98741.28;;;13.97;63.33
53858;BME280;39763;51.188;6.690;2023-03-14T00:14:59;98752.81;;;13.96;63.11
53858;BME280;39763;51.188;6.690;2023-03-14T00:16:31;98747.28;;;13.99;63.00
53858;BME280;39763;51.188;6.690;2023-03-14T00:18:03;98753.53;;;13.98;62.83
53858;BME280;39763;51.188;6.690;2023-03-14T00:19:36;98749.94;;;13.99;63.09
53858;BME280;39763;51.188;6.690;2023-03-14T00:21:08;98753.41;;;13.99;63.04
53858;BME280;39763;51.188;6.690;2023-03-14T00:22:40;98770.09;;;14.00;63.17
53858;BME280;39763;51.188;6.690;2023-03-14T00:24:12;98772.59;;;14.01;63.22
53858;BME280;39763;51.188;6.690;2023-03-14T00:25:44;98789.28;;;14.02;63.17
53858;BME280;39763;51.188;6.690;2023-03-14T00:27:15;98794.56;;;14.02;63.17
53858;BME280;39763;51.188;6.690;2023-03-14T00:28:50;98807.03;;;14.00;63.71
53858;BME280;39763;51.188;6.690;2023-03-14T00:30:22;98795.75;;;13.87;65.53
53858;BME280;39763;51.188;6.690;2023-03-14T00:31:54;98830.03;;;13.75;67.20
53858;BME280;39763;51.188;6.690;2023-03-14T00:33:26;98860.09;;;13.62;68.56
53858;BME280;39763;51.188;6.690;2023-03-14T00:34:59;98878.38;;;13.41;72.80
53858;BME280;39763;51.188;6.690;2023-03-14T00:36:32;98865.22;;;13.04;76.80
53858;BME280;39763;51.188;6.690;2023-03-14T00:38:03;98874.03;;;12.80;78.69
53858;BME280;39763;51.188;6.690;2023-03-14T00:39:35;98867.34;;;12.63;79.89
53858;BME280;39763;51.188;6.690;2023-03-14T00:41:07;98877.28;;;12.47;81.50
53858;BME280;39763;51.188;6.690;2023-03-14T00:42:39;98815.41;;;12.28;82.29
53858;BME280;39763;51.188;6.690;2023-03-14T00:44:11;98851.75;;;12.11;82.39
53858;BME280;39763;51.188;6.690;2023-03-14T00:45:42;98861.09;;;12.02;83.20
53858;BME280;39763;51.188;6.690;2023-03-14T00:47:14;98848.59;;;11.93;84.06
53858;BME280;39763;51.188;6.690;2023-03-14T00:48:46;98843.75;;;11.87;83.35
53858;BME280;39763;51.188;6.690;2023-03-14T00:50:20;98825.00;;;11.79;84.05
53858;BME280;39763;51.188;6.690;2023-03-14T00:51:51;98838.88;;;11.68;83.98
53858;BME280;39763;51.188;6.690;2023-03-14T00:53:23;98824.53;;;11.59;84.71
53858;BME280;39763;51.188;6.690;2023-03-14T00:54:55;98828.53;;;11.52;84.45
53858;BME280;39763;51.188;6.690;2023-03-14T00:56:27;98828.19;;;11.44;84.35
53858;BME280;39763;51.188;6.690;2023-03-14T00:57:58;98829.56;;;11.37;84.27
53858;BME280;39763;51.188;6.690;2023-03-14T00:59:30;98819.44;;;11.31;84.62
53858;BME280;39763;51.188;6.690;2023-03-14T01:01:05;98828.50;;;11.27;84.48
53858;BME280;39763;51.188;6.690;2023-03-14T01:02:36;98829.63;;;11.23;84.18
53858;BME280;39763;51.188;6.690;2023-03-14T01:04:08;98830.78;;;11.19;84.42
53858;BME280;39763;51.188;6.690;2023-03-14T01:05:41;98816.88;;;11.17;83.69
53858;BME280;39763;51.188;6.690;2023-03-14T01:07:13;98829.63;;;11.23;83.34
53858;BME280;39763;51.188;6.690;2023-03-14T01:08:45;98811.03;;;11.26;83.04
53858;BME280;39763;51.188;6.690;2023-03-14T01:10:17;98819.78;;;11.26;82.55
53858;BME280;39763;51.188;6.690;2023-03-14T01:11:48;98817.56;;;11.33;82.34
53858;BME280;39763;51.188;6.690;2023-03-14T01:13:21;98811.91;;;11.39;81.50
53858;BME280;39763;51.188;6.690;2023-03-14T01:14:52;98817.78;;;11.43;81.21
53858;BME280;39763;51.188;6.690;2023-03-14T01:16:25;98814.53;;;11.39;80.63
53858;BME280;39763;51.188;6.690;2023-03-14T01:17:57;98819.69;;;11.41;80.44
53858;BME280;39763;51.188;6.690;2023-03-14T01:19:29;98822.09;;;11.44;80.22
53858;BME280;39763;51.188;6.690;2023-03-14T01:21:09;98833.34;;;11.46;80.08
53858;BME280;39763;51.188;6.690;2023-03-14T01:22:41;98818.41;;;11.46;79.98
53858;BME280;39763;51.188;6.690;2023-03-14T01:24:13;98816.63;;;11.47;79.97
53858;BME280;39763;51.188;6.690;2023-03-14T01:25:45;98812.97;;;11.49;79.76
53858;BME280;39763;51.188;6.690;2023-03-14T01:27:17;98807.50;;;11.52;79.76
53858;BME280;39763;51.188;6.690;2023-03-14T01:28:49;98799.53;;;11.54;79.94
53858;BME280;39763;51.188;6.690;2023-03-14T01:30:22;98802.16;;;11.54;79.86
53858;BME280;39763;51.188;6.690;2023-03-14T01:31:54;98788.66;;;11.58;79.29
53858;BME280;39763;51.188;6.690;2023-03-14T01:33:26;98790.25;;;11.61;79.07
53858;BME280;39763;51.188;6.690;2023-03-14T01:34:58;98789.09;;;11.65;79.38
53858;BME280;39763;51.188;6.690;2023-03-14T01:36:31;98791.53;;;11.68;78.89
53858;BME280;39763;51.188;6.690;2023-03-14T01:38:05;98784.38;;;11.70;78.86
53858;BME280;39763;51.188;6.690;2023-03-14T01:39:37;98785.00;;;11.74;78.49
53858;BME280;39763;51.188;6.690;2023-03-14T01:41:12;98784.81;;;11.77;78.31
53858;BME280;39763;51.188;6.690;2023-03-14T01:42:45;98791.56;;;11.81;77.82
53858;BME280;39763;51.188;6.690;2023-03-14T01:44:16;98792.09;;;11.86;77.42
53858;BME280;39763;51.188;6.690;2023-03-14T01:47:51;98788.38;;;11.88;76.81
53858;BME280;39763;51.188;6.690;2023-03-14T01:49:24;98789.75;;;11.94;76.71
53858;BME280;39763;51.188;6.690;2023-03-14T01:51:03;98786.81;;;11.98;76.82
53858;BME280;39763;51.188;6.690;2023-03-14T01:52:39;98783.34;;;11.98;76.18
53858;BME280;39763;51.188;6.690;2023-03-14T01:54:15;98786.72;;;12.00;76.83
53858;BME280;39763;51.188;6.690;2023-03-14T01:55:48;98786.63;;;12.02;75.92
53858;BME280;39763;51.188;6.690;2023-03-14T01:57:20;98777.88;;;12.01;76.41
53858;BME280;39763;51.188;6.690;2023-03-14T01:58:53;98775.09;;;12.02;76.19
53858;BME280;39763;51.188;6.690;2023-03-14T02:00:26;98772.38;;;12.04;76.43
53858;BME280;39763;51.188;6.690;2023-03-14T02:01:57;98766.91;;;12.07;76.17
53858;BME280;39763;51.188;6.690;2023-03-14T02:03:30;98770.47;;;12.06;75.53
53858;BME280;39763;51.188;6.690;2023-03-14T02:05:06;98773.84;;;12.08;76.07
53858;BME280;39763;51.188;6.690;2023-03-14T02:06:42;98762.28;;;12.11;76.14
53858;BME280;39763;51.188;6.690;2023-03-14T02:08:18;98764.91;;;12.11;75.10
53858;BME280;39763;51.188;6.690;2023-03-14T02:09:54;98766.69;;;12.10;74.97
53858;BME280;39763;51.188;6.690;2023-03-14T02:11:30;98773.66;;;12.11;75.28
53858;BME280;39763;51.188;6.690;2023-03-14T02:13:20;98780.59;;;12.12;75.38
53858;BME280;39763;51.188;6.690;2023-03-14T02:15:21;98764.91;;;12.11;75.72
53858;BME280;39763;51.188;6.690;2023-03-14T02:16:57;98773.75;;;12.10;75.63
53858;BME280;39763;51.188;6.690;2023-03-14T02:18:47;98776.38;;;12.10;76.04
53858;BME280;39763;51.188;6.690;2023-03-14T02:20:30;98774.59;;;12.10;76.12
53858;BME280;39763;51.188;6.690;2023-03-14T02:22:06;98778.16;;;12.09;75.28
53858;BME280;39763;51.188;6.690;2023-03-14T02:24:08;98769.13;;;12.13;75.89
53858;BME280;39763;51.188;6.690;2023-03-14T02:25:48;98776.06;;;12.14;75.94
53858;BME280;39763;51.188;6.690;2023-03-14T02:27:23;98776.81;;;12.16;74.81
53858;BME280;39763;51.188;6.690;2023-03-14T02:28:55;98788.16;;;12.17;75.15
53858;BME280;39763;51.188;6.690;2023-03-14T02:30:27;98782.78;;;12.18;74.78
53858;BME280;39763;51.188;6.690;2023-03-14T02:32:00;98789.81;;;12.18;74.05
53858;BME280;39763;51.188;6.690;2023-03-14T02:33:32;98787.09;;;12.19;73.87
53858;BME280;39763;51.188;6.690;2023-03-14T02:35:05;98780.97;;;12.19;73.88
53858;BME280;39763;51.188;6.690;2023-03-14T02:36:38;98786.25;;;12.19;73.89
53858;BME280;39763;51.188;6.690;2023-03-14T02:38:11;98791.28;;;12.22;73.90
53858;BME280;39763;51.188;6.690;2023-03-14T02:39:48;98786.88;;;12.22;74.01
53858;BME280;39763;51.188;6.690;2023-03-14T02:41:21;98779.19;;;12.19;73.56
53858;BME280;39763;51.188;6.690;2023-03-14T02:43:04;98780.97;;;12.19;73.62
53858;BME280;39763;51.188;6.690;2023-03-14T02:44:45;98775.50;;;12.22;74.08
53858;BME280;39763;51.188;6.690;2023-03-14T02:46:17;98774.66;;;12.21;73.93
53858;BME280;39763;51.188;6.690;2023-03-14T02:47:51;98769.41;;;12.21;73.86
53858;BME280;39763;51.188;6.690;2023-03-14T02:49:24;98764.13;;;12.21;73.53
53858;BME280;39763;51.188;6.690;2023-03-14T02:50:57;98762.47;;;12.20;73.42
53858;BME280;39763;51.188;6.690;2023-03-14T02:52:31;98752.78;;;12.21;73.21
53858;BME280;39763;51.188;6.690;2023-03-14T02:54:03;98762.47;;;12.20;73.40
53858;BME280;39763;51.188;6.690;2023-03-14T02:55:35;98755.28;;;12.22;73.71
53858;BME280;39763;51.188;6.690;2023-03-14T02:57:13;98753.59;;;12.21;73.65
53858;BME280;39763;51.188;6.690;2023-03-14T02:58:47;98761.50;;;12.21;73.21
53858;BME280;39763;51.188;6.690;2023-03-14T03:00:41;98751.94;;;12.20;73.52
53858;BME280;39763;51.188;6.690;2023-03-14T03:02:15;98744.13;;;12.19;73.60
53858;BME280;39763;51.188;6.690;2023-03-14T03:03:46;98749.19;;;12.22;73.77
53858;BME280;39763;51.188;6.690;2023-03-14T03:05:18;98746.56;;;12.22;73.35
53858;BME280;39763;51.188;6.690;2023-03-14T03:06:50;98741.09;;;12.25;73.34
53858;BME280;39763;51.188;6.690;2023-03-14T03:08:22;98744.56;;;12.25;73.81
53858;BME280;39763;51.188;6.690;2023-03-14T03:09:55;98738.34;;;12.26;73.97
53858;BME280;39763;51.188;6.690;2023-03-14T03:11:26;98745.28;;;12.27;73.76
53858;BME280;39763;51.188;6.690;2023-03-14T03:12:58;98743.59;;;12.26;73.69
53858;BME280;39763;51.188;6.690;2023-03-14T03:14:32;98748.66;;;12.29;73.33
53858;BME280;39763;51.188;6.690;2023-03-14T03:16:07;98751.28;;;12.29;73.76
53858;BME280;39763;51.188;6.690;2023-03-14T03:17:39;98752.25;;;12.28;74.55
53858;BME280;39763;51.188;6.690;2023-03-14T03:19:11;98746.97;;;12.28;74.05
53858;BME280;39763;51.188;6.690;2023-03-14T03:20:45;98751.41;;;12.28;74.80
53858;BME280;39763;51.188;6.690;2023-03-14T03:22:17;98750.56;;;12.27;74.53
53858;BME280;39763;51.188;6.690;2023-03-14T03:23:48;98751.50;;;12.26;74.33
53858;BME280;39763;51.188;6.690;2023-03-14T03:25:20;98743.72;;;12.25;73.93
53858;BME280;39763;51.188;6.690;2023-03-14T03:26:54;98750.78;;;12.24;74.88
53858;BME280;39763;51.188;6.690;2023-03-14T03:28:25;98748.44;;;12.20;74.37
53858;BME280;39763;51.188;6.690;2023-03-14T03:29:59;98753.22;;;12.15;75.15
53858;BME280;39763;51.188;6.690;2023-03-14T03:31:36;98748.06;;;12.13;75.71
53858;BME280;39763;51.188;6.690;2023-03-14T03:33:08;98741.44;;;12.08;75.69
53858;BME280;39763;51.188;6.690;2023-03-14T03:34:39;98753.47;;;11.99;77.07
53858;BME280;39763;51.188;6.690;2023-03-14T03:36:11;98734.72;;;11.91;77.90
53858;BME280;39763;51.188;6.690;2023-03-14T03:37:44;98755.03;;;11.89;78.18
53858;BME280;39763;51.188;6.690;2023-03-14T03:39:15;98745.91;;;11.82;79.09
53858;BME280;39763;51.188;6.690;2023-03-14T03:40:50;98751.75;;;11.73;80.20
53858;BME280;39763;51.188;6.690;2023-03-14T03:42:23;98748.94;;;11.63;80.47
53858;BME280;39763;51.188;6.690;2023-03-14T03:43:55;98745.06;;;11.56;81.69
53858;BME280;39763;51.188;6.690;2023-03-14T03:45:29;98742.00;;;11.49;81.88
53858;BME280;39763;51.188;6.690;2023-03-14T03:47:01;98736.00;;;11.47;82.46
53858;BME280;39763;51.188;6.690;2023-03-14T03:48:33;98741.25;;;11.47;82.28
53858;BME280;39763;51.188;6.690;2023-03-14T03:50:07;98736.94;;;11.46;82.58
53858;BME280;39763;51.188;6.690;2023-03-14T03:51:39;98733.56;;;11.44;83.03
53858;BME280;39763;51.188;6.690;2023-03-14T03:53:11;98729.06;;;11.46;83.04
53858;BME280;39763;51.188;6.690;2023-03-14T03:54:46;98722.09;;;11.45;83.28
53858;BME280;39763;51.188;6.690;2023-03-14T03:56:17;98719.38;;;11.47;83.74
53858;BME280;39763;51.188;6.690;2023-03-14T03:57:49;98712.13;;;11.50;83.45
53858;BME280;39763;51.188;6.690;2023-03-14T03:59:21;98711.59;;;11.58;83.67
53858;BME280;39763;51.188;6.690;2023-03-14T04:00:54;98719.25;;;11.61;82.99
53858;BME280;39763;51.188;6.690;2023-03-14T04:02:26;98717.28;;;11.64;83.17
53858;BME280;39763;51.188;6.690;2023-03-14T04:03:58;98715.28;;;11.68;83.15
53858;BME280;39763;51.188;6.690;2023-03-14T04:05:30;98714.00;;;11.74;83.08
53858;BME280;39763;51.188;6.690;2023-03-14T04:07:07;98714.75;;;11.76;82.27
53858;BME280;39763;51.188;6.690;2023-03-14T04:08:39;98717.28;;;11.77;82.21
53858;BME280;39763;51.188;6.690;2023-03-14T04:10:14;98705.81;;;11.78;82.21
53858;BME280;39763;51.188;6.690;2023-03-14T04:11:53;98710.88;;;11.81;82.11
53858;BME280;39763;51.188;6.690;2023-03-14T04:13:24;98705.50;;;11.83;82.67
53858;BME280;39763;51.188;6.690;2023-03-14T04:14:58;98718.44;;;11.86;82.16
53858;BME280;39763;51.188;6.690;2023-03-14T04:16:31;98712.09;;;11.88;81.85
53858;BME280;39763;51.188;6.690;2023-03-14T04:18:08;98716.41;;;11.89;82.33
53858;BME280;39763;51.188;6.690;2023-03-14T04:19:41;98727.78;;;11.90;81.90
53858;BME280;39763;51.188;6.690;2023-03-14T04:21:14;98718.00;;;11.92;82.41
53858;BME280;39763;51.188;6.690;2023-03-14T04:22:52;98721.78;;;12.00;82.66
53858;BME280;39763;51.188;6.690;2023-03-14T04:24:24;98707.97;;;12.10;81.76
53858;BME280;39763;51.188;6.690;2023-03-14T04:25:55;98708.97;;;12.20;81.79
53858;BME280;39763;51.188;6.690;2023-03-14T04:27:28;98707.72;;;12.25;81.17
53858;BME280;39763;51.188;6.690;2023-03-14T04:29:00;98707.50;;;12.28;80.72
53858;BME280;39763;51.188;6.690;2023-03-14T04:30:32;98718.88;;;12.29;80.40
53858;BME280;39763;51.188;6.690;2023-03-14T04:32:18;98711.69;;;12.31;80.93
53858;BME280;39763;51.188;6.690;2023-03-14T04:33:49;98720.31;;;12.33;80.82
53858;BME280;39763;51.188;6.690;2023-03-14T04:35:27;98714.44;;;12.29;79.79
53858;BME280;39763;51.188;6.690;2023-03-14T04:37:03;98699.06;;;12.23;80.41
53858;BME280;39763;51.188;6.690;2023-03-14T04:38:40;98691.81;;;12.27;81.10
53858;BME280;39763;51.188;6.690;2023-03-14T04:40:12;98697.34;;;12.35;81.07
53858;BME280;39763;51.188;6.690;2023-03-14T04:41:44;98694.91;;;12.45;80.36
53858;BME280;39763;51.188;6.690;2023-03-14T04:43:18;98696.97;;;12.52;80.99
53858;BME280;39763;51.188;6.690;2023-03-14T04:44:56;98692.88;;;12.48;79.90
53858;BME280;39763;51.188;6.690;2023-03-14T04:46:30;98690.47;;;12.45;79.70
53858;BME280;39763;51.188;6.690;2023-03-14T04:48:04;98678.75;;;12.49;79.92
53858;BME280;39763;51.188;6.690;2023-03-14T04:49:36;98676.41;;;12.57;80.10
53858;BME280;39763;51.188;6.690;2023-03-14T04:51:09;98671.63;;;12.62;79.87
53858;BME280;39763;51.188;6.690;2023-03-14T04:52:41;98668.53;;;12.68;79.13
53858;BME280;39763;51.188;6.690;2023-03-14T04:54:13;98671.06;;;12.70;79.36
53858;BME280;39763;51.188;6.690;2023-03-14T04:55:47;98665.91;;;12.68;78.47
53858;BME280;39763;51.188;6.690;2023-03-14T04:57:19;98661.72;;;12.66;78.78
53858;BME280;39763;51.188;6.690;2023-03-14T04:58:51;98648.75;;;12.63;77.35
53858;BME280;39763;51.188;6.690;2023-03-14T05:00:23;98644.69;;;12.59;76.75
53858;BME280;39763;51.188;6.690;2023-03-14T05:02:06;98641.78;;;12.51;76.11
53858;BME280;39763;51.188;6.690;2023-03-14T05:03:48;98645.72;;;12.45;75.96
53858;BME280;39763;51.188;6.690;2023-03-14T05:05:46;98644.59;;;12.36;76.14
53858;BME280;39763;51.188;6.690;2023-03-14T05:07:39;98646.75;;;12.31;76.62
53858;BME280;39763;51.188;6.690;2023-03-14T05:09:42;98638.22;;;12.28;76.02
53858;BME280;39763;51.188;6.690;2023-03-14T05:11:29;98650.75;;;12.24;75.46
53858;BME280;39763;51.188;6.690;2023-03-14T05:13:12;98635.91;;;12.23;74.99
53858;BME280;39763;51.188;6.690;2023-03-14T05:15:13;98641.28;;;12.22;74.73
53858;BME280;39763;51.188;6.690;2023-03-14T05:17:14;98646.06;;;12.17;75.48
53858;BME280;39763;51.188;6.690;2023-03-14T05:19:05;98634.81;;;12.15;75.31
53858;BME280;39763;51.188;6.690;2023-03-14T05:20:55;98638.50;;;12.12;75.53
53858;BME280;39763;51.188;6.690;2023-03-14T05:22:52;98629.75;;;12.12;75.62
53858;BME280;39763;51.188;6.690;2023-03-14T05:24:29;98635.03;;;12.12;75.17
53858;BME280;39763;51.188;6.690;2023-03-14T05:26:04;98623.66;;;12.11;75.17
53858;BME280;39763;51.188;6.690;2023-03-14T05:27:36;98623.66;;;12.11;75.47
53858;BME280;39763;51.188;6.690;2023-03-14T05:29:27;98627.13;;;12.12;75.14
53858;BME280;39763;51.188;6.690;2023-03-14T05:31:10;98618.41;;;12.11;74.31
53858;BME280;39763;51.188;6.690;2023-03-14T05:33:05;98616.72;;;12.10;75.08
53858;BME280;39763;51.188;6.690;2023-03-14T05:34:47;98619.88;;;12.15;74.74
53858;BME280;39763;51.188;6.690;2023-03-14T05:36:39;98625.81;;;12.17;74.15
53858;BME280;39763;51.188;6.690;2023-03-14T05:38:47;98621.19;;;12.21;73.99
53858;BME280;39763;51.188;6.690;2023-03-14T05:40:39;98613.19;;;12.22;74.38
53858;BME280;39763;51.188;6.690;2023-03-14T05:42:24;98621.06;;;12.22;74.15
53858;BME280;39763;51.188;6.690;2023-03-14T05:44:09;98625.00;;;12.17;74.44
53858;BME280;39763;51.188;6.690;2023-03-14T05:45:48;98610.88;;;12.18;74.20
53858;BME280;39763;51.188;6.690;2023-03-14T05:47:38;98607.66;;;12.14;75.09
53858;BME280;39763;51.188;6.690;2023-03-14T05:49:26;98619.47;;;12.09;74.23
53858;BME280;39763;51.188;6.690;2023-03-14T05:51:17;98615.97;;;12.08;74.59
53858;BME280;39763;51.188;6.690;2023-03-14T05:53:14;98616.19;;;12.05;74.89
53858;BME280;39763;51.188;6.690;2023-03-14T05:54:56;98619.78;;;12.04;74.71
53858;BME280;39763;51.188;6.690;2023-03-14T05:56:51;98614.50;;;12.04;75.23
53858;BME280;39763;51.188;6.690;2023-03-14T05:58:36;98613.78;;;12.02;75.60
53858;BME280;39763;51.188;6.690;2023-03-14T06:00:17;98625.28;;;12.01;75.47
53858;BME280;39763;51.188;6.690;2023-03-14T06:02:15;98620.25;;;11.98;75.43
53858;BME280;39763;51.188;6.690;2023-03-14T06:03:57;98614.97;;;11.98;75.76
53858;BME280;39763;51.188;6.690;2023-03-14T06:05:29;98611.88;;;12.04;76.00
53858;BME280;39763;51.188;6.690;2023-03-14T06:07:05;98599.81;;;12.02;75.87
53858;BME280;39763;51.188;6.690;2023-03-14T06:08:37;98608.53;;;12.02;75.87
53858;BME280;39763;51.188;6.690;2023-03-14T06:10:10;98603.25;;;12.02;76.33
53858;BME280;39763;51.188;6.690;2023-03-14T06:11:42;98604.84;;;12.05;76.15
53858;BME280;39763;51.188;6.690;2023-03-14T06:13:15;98599.81;;;12.02;76.37
53858;BME280;39763;51.188;6.690;2023-03-14T06:14:47;98611.63;;;11.96;76.13
53858;BME280;39763;51.188;6.690;2023-03-14T06:16:19;98613.41;;;11.95;76.12
53858;BME280;39763;51.188;6.690;2023-03-14T06:17:51;98612.34;;;11.98;76.59
53858;BME280;39763;51.188;6.690;2023-03-14T06:19:24;98606.97;;;11.99;75.94
53858;BME280;39763;51.188;6.690;2023-03-14T06:20:56;98607.09;;;11.98;76.29
53858;BME280;39763;51.188;6.690;2023-03-14T06:22:31;98609.50;;;12.01;76.32
53858;BME280;39763;51.188;6.690;2023-03-14T06:24:03;98609.50;;;12.01;76.08
53858;BME280;39763;51.188;6.690;2023-03-14T06:25:40;98610.56;;;11.98;76.35
53858;BME280;39763;51.188;6.690;2023-03-14T06:27:12;98614.25;;;11.96;76.37
53858;BME280;39763;51.188;6.690;2023-03-14T06:28:44;98607.19;;;11.96;75.79
53858;BME280;39763;51.188;6.690;2023-03-14T06:30:16;98607.09;;;11.98;76.40
53858;BME280;39763;51.188;6.690;2023-03-14T06:31:48;98617.41;;;12.01;76.49
53858;BME280;39763;51.188;6.690;2023-03-14T06:33:22;98609.38;;;12.02;76.37
53858;BME280;39763;51.188;6.690;2023-03-14T06:34:53;98615.34;;;12.05;76.04
53858;BME280;39763;51.188;6.690;2023-03-14T06:36:27;98619.56;;;12.07;76.35
53858;BME280;39763;51.188;6.690;2023-03-14T06:38:01;98615.97;;;12.08;75.91
53858;BME280;39763;51.188;6.690;2023-03-14T06:39:33;98618.63;;;12.08;75.23
53858;BME280;39763;51.188;6.690;2023-03-14T06:41:11;98617.34;;;12.14;75.29
53858;BME280;39763;51.188;6.690;2023-03-14T06:42:46;98626.19;;;12.13;75.08
53858;BME280;39763;51.188;6.690;2023-03-14T06:44:25;98617.44;;;12.12;75.03
53858;BME280;39763;51.188;6.690;2023-03-14T06:45:56;98619.03;;;12.15;75.48
53858;BME280;39763;51.188;6.690;2023-03-14T06:47:28;98622.25;;;12.18;75.00
53858;BME280;39763;51.188;6.690;2023-03-14T06:49:00;98619.50;;;12.20;75.10
53858;BME280;39763;51.188;6.690;2023-03-14T06:50:34;98626.44;;;12.21;75.49
53858;BME280;39763;51.188;6.690;2023-03-14T06:52:05;98613.19;;;12.22;75.35
53858;BME280;39763;51.188;6.690;2023-03-14T06:53:39;98626.34;;;12.22;76.10
53858;BME280;39763;51.188;6.690;2023-03-14T06:55:11;98621.19;;;12.21;75.34
53858;BME280;39763;51.188;6.690;2023-03-14T06:56:45;98619.41;;;12.21;75.38
53858;BME280;39763;51.188;6.690;2023-03-14T06:58:18;98627.19;;;12.23;75.67
53858;BME280;39763;51.188;6.690;2023-03-14T06:59:50;98622.75;;;12.23;75.52
53858;BME280;39763;51.188;6.690;2023-03-14T07:01:22;98619.19;;;12.24;76.51
53858;BME280;39763;51.188;6.690;2023-03-14T07:02:56;98628.97;;;12.22;77.14
53858;BME280;39763;51.188;6.690;2023-03-14T07:04:32;98633.38;;;12.22;78.02
53858;BME280;39763;51.188;6.690;2023-03-14T07:06:05;98636.75;;;12.24;78.02
53858;BME280;39763;51.188;6.690;2023-03-14T07:07:37;98635.91;;;12.23;78.12
53858;BME280;39763;51.188;6.690;2023-03-14T07:09:11;98646.44;;;12.23;79.33
53858;BME280;39763;51.188;6.690;2023-03-14T07:10:47;98636.88;;;12.22;78.77
53858;BME280;39763;51.188;6.690;2023-03-14T07:12:21;98635.91;;;12.23;79.29
53858;BME280;39763;51.188;6.690;2023-03-14T07:13:53;98639.38;;;12.24;79.25
53858;BME280;39763;51.188;6.690;2023-03-14T07:15:28;98622.75;;;12.23;79.14
53858;BME280;39763;51.188;6.690;2023-03-14T07:17:05;98636.44;;;12.28;79.59
53858;BME280;39763;51.188;6.690;2023-03-14T07:18:37;98634.38;;;12.32;78.35
53858;BME280;39763;51.188;6.690;2023-03-14T07:20:10;98634.06;;;12.36;79.16
53858;BME280;39763;51.188;6.690;2023-03-14T07:21:42;98641.53;;;12.43;78.04
53858;BME280;39763;51.188;6.690;2023-03-14T07:23:17;98639.50;;;12.46;78.46
53858;BME280;39763;51.188;6.690;2023-03-14T07:24:56;98646.94;;;12.52;78.01
53858;BME280;39763;51.188;6.690;2023-03-14T07:26:29;98635.22;;;12.56;78.00
53858;BME280;39763;51.188;6.690;2023-03-14T07:28:01;98647.91;;;12.62;77.22
53858;BME280;39763;51.188;6.690;2023-03-14T07:29:33;98644.00;;;12.68;77.37
53858;BME280;39763;51.188;6.690;2023-03-14T07:31:07;98642.81;;;12.72;77.22
53858;BME280;39763;51.188;6.690;2023-03-14T07:32:39;98645.22;;;12.75;76.44
53858;BME280;39763;51.188;6.690;2023-03-14T07:34:11;98648.56;;;12.77;76.75
53858;BME280;39763;51.188;6.690;2023-03-14T07:35:47;98645.94;;;12.77;76.47
53858;BME280;39763;51.188;6.690;2023-03-14T07:37:19;98650.13;;;12.80;76.94
53858;BME280;39763;51.188;6.690;2023-03-14T07:38:50;98656.25;;;12.80;76.55
53858;BME280;39763;51.188;6.690;2023-03-14T07:40:27;98657.31;;;12.78;76.66
53858;BME280;39763;51.188;6.690;2023-03-14T07:41:59;98652.03;;;12.78;77.02
53858;BME280;39763;51.188;6.690;2023-03-14T07:43:46;98659.00;;;12.79;76.91
53858;BME280;39763;51.188;6.690;2023-03-14T07:45:18;98645.94;;;12.77;77.72
53858;BME280;39763;51.188;6.690;2023-03-14T07:46:50;98656.47;;;12.77;77.20
53858;BME280;39763;51.188;6.690;2023-03-14T07:48:22;98662.72;;;12.76;77.52
53858;BME280;39763;51.188;6.690;2023-03-14T07:49:56;98666.16;;;12.77;77.54
53858;BME280;39763;51.188;6.690;2023-03-14T07:51:28;98660.56;;;12.81;78.19
53858;BME280;39763;51.188;6.690;2023-03-14T07:53:00;98661.06;;;12.86;77.75
53858;BME280;39763;51.188;6.690;2023-03-14T07:54:31;98667.28;;;12.85;77.66
53858;BME280;39763;51.188;6.690;2023-03-14T07:56:06;98660.94;;;12.88;77.63
53858;BME280;39763;51.188;6.690;2023-03-14T07:57:37;98671.13;;;12.92;77.49
53858;BME280;39763;51.188;6.690;2023-03-14T07:59:09;98680.38;;;12.98;76.89
53858;BME280;39763;51.188;6.690;2023-03-14T08:00:42;98673.19;;;13.00;76.98
53858;BME280;39763;51.188;6.690;2023-03-14T08:02:14;98669.38;;;13.04;77.30
53858;BME280;39763;51.188;6.690;2023-03-14T08:03:46;98665.78;;;13.05;76.91
53858;BME280;39763;51.188;6.690;2023-03-14T08:05:18;98683.13;;;13.07;76.50
53858;BME280;39763;51.188;6.690;2023-03-14T08:06:50;98661.47;;;13.04;75.92
53858;BME280;39763;51.188;6.690;2023-03-14T08:08:22;98667.22;;;13.09;76.24
53858;BME280;39763;51.188;6.690;2023-03-14T08:09:54;98666.16;;;13.12;76.23
53858;BME280;39763;51.188;6.690;2023-03-14T08:11:27;98674.34;;;13.20;75.91
53858;BME280;39763;51.188;6.690;2023-03-14T08:12:58;98669.56;;;13.25;76.15
53858;BME280;39763;51.188;6.690;2023-03-14T08:14:31;98676.28;;;13.29;75.60
53858;BME280;39763;51.188;6.690;2023-03-14T08:16:03;98673.53;;;13.30;75.35
53858;BME280;39763;51.188;6.690;2023-03-14T08:17:35;98669.94;;;13.31;75.37
53858;BME280;39763;51.188;6.690;2023-03-14T08:19:07;98681.31;;;13.32;75.34
53858;BME280;39763;51.188;6.690;2023-03-14T08:20:39;98677.84;;;13.31;75.01
53858;BME280;39763;51.188;6.690;2023-03-14T08:22:11;98681.44;;;13.30;75.05
53858;BME280;39763;51.188;6.690;2023-03-14T08:23:42;98677.97;;;13.30;75.49
53858;BME280;39763;51.188;6.690;2023-03-14T08:25:14;98683.22;;;13.30;74.80
53858;BME280;39763;51.188;6.690;2023-03-14T08:26:47;98682.50;;;13.28;74.79